Time;durP1;ratioP1;P1;durP2;ratioP2;P2;SDS_P1;SDS_P2;PMS_P1;PMS_P2;Temp;Humidity;BMP_temperature;BMP_pressure;BME280_temperature;BME280_humidity;BME280_pressure;Samples;Min_cycle;Max_cycle;Signal;HPM_P1;HPM_P2
2021/05/07 00:02:18;;;;;;;2.20;2.00;;;8.00;99.90;;;;;;5062083;28;20433;-82
2021/05/07 00:04:55;;;;;;;2.70;2.50;;;7.90;99.90;;;;;;5059741;28;20472;-83
2021/05/07 00:07:30;;;;;;;2.60;2.40;;;7.90;99.90;;;;;;5063019;28;20449;-82
2021/05/07 00:10:05;;;;;;;2.87;2.67;;;7.80;99.90;;;;;;5062725;28;20528;-81
2021/05/07 00:12:41;;;;;;;2.70;2.50;;;7.80;99.90;;;;;;5059921;28;20972;-81
2021/05/07 00:15:16;;;;;;;2.40;2.27;;;7.90;99.90;;;;;;5061907;28;20484;-80
2021/05/07 00:17:48;;;;;;;2.23;2.13;;;7.80;99.90;;;;;;5061465;28;20723;-81
2021/05/07 00:20:23;;;;;;;2.37;2.17;;;7.90;99.90;;;;;;5061072;28;20456;-83
2021/05/07 00:22:59;;;;;;;2.60;2.40;;;7.90;99.90;;;;;;5045511;28;20540;-82
2021/05/07 00:25:31;;;;;;;2.43;2.30;;;7.80;99.90;;;;;;5066101;28;20486;-81
2021/05/07 00:28:07;;;;;;;1.77;1.67;;;7.90;99.90;;;;;;5065067;28;20449;-81
2021/05/07 00:30:43;;;;;;;2.60;2.40;;;7.80;99.90;;;;;;5057395;28;20569;-82
2021/05/07 00:33:18;;;;;;;2.50;2.30;;;7.80;99.90;;;;;;5063340;28;20462;-82
2021/05/07 00:35:53;;;;;;;2.60;2.40;;;7.90;99.90;;;;;;5061146;28;20446;-83
2021/05/07 00:38:29;;;;;;;2.50;2.30;;;7.80;99.90;;;;;;5059678;28;20460;-81
2021/05/07 00:41:03;;;;;;;2.80;2.60;;;7.80;99.90;;;;;;5060648;28;20465;-80
2021/05/07 00:43:40;;;;;;;3.00;2.67;;;7.70;99.90;;;;;;5066836;28;20447;-80
2021/05/07 00:46:15;;;;;;;2.60;2.40;;;7.70;99.90;;;;;;5061247;28;20544;-81
2021/05/07 00:48:49;;;;;;;3.40;3.20;;;7.70;99.90;;;;;;5060510;28;20456;-81
2021/05/07 00:51:33;;;;;;;3.20;3.00;;;7.70;99.90;;;;;;5064783;28;20484;-82
2021/05/07 00:54:09;;;;;;;2.90;2.70;;;7.60;99.90;;;;;;5071964;28;20558;-83
2021/05/07 00:56:43;;;;;;;2.97;2.77;;;7.60;99.90;;;;;;5065329;28;20482;-82
2021/05/07 01:02:04;;;;;;;3.57;3.37;;;7.60;99.90;;;;;;5063563;28;20461;-83
2021/05/07 01:04:39;;;;;;;4.17;3.87;;;7.60;99.90;;;;;;5061292;28;20458;-81
2021/05/07 01:07:14;;;;;;;4.10;3.70;;;7.60;99.90;;;;;;5063935;28;20456;-81
2021/05/07 01:09:52;;;;;;;3.90;3.60;;;7.60;99.90;;;;;;5058363;28;20438;-83
2021/05/07 01:12:32;;;;;;;3.70;3.40;;;7.70;99.90;;;;;;5044151;28;20464;-82
2021/05/07 01:15:12;;;;;;;2.90;2.70;;;7.60;99.90;;;;;;5051184;28;20456;-81
2021/05/07 01:17:48;;;;;;;3.87;3.57;;;7.70;99.90;;;;;;5057104;28;20446;-83
2021/05/07 01:20:25;;;;;;;4.10;3.80;;;7.60;99.90;;;;;;5060299;28;20480;-82
2021/05/07 01:23:03;;;;;;;4.67;4.37;;;7.60;99.90;;;;;;5056787;28;20461;-82
2021/05/07 01:25:39;;;;;;;3.90;3.60;;;7.60;99.90;;;;;;5055265;28;20489;-85
2021/05/07 01:28:20;;;;;;;4.37;3.97;;;7.50;99.90;;;;;;5057994;28;20481;-82
2021/05/07 01:30:55;;;;;;;5.20;4.80;;;7.50;96.50;;;;;;5057397;28;20509;-83
2021/05/07 01:33:30;;;;;;;4.73;4.33;;;7.40;97.90;;;;;;5058416;28;20465;-83
2021/05/07 01:36:07;;;;;;;5.63;5.13;;;7.30;97.00;;;;;;5059521;28;20441;-85
2021/05/07 01:38:42;;;;;;;4.60;4.20;;;7.30;97.20;;;;;;5056977;28;20479;-83
2021/05/07 01:41:17;;;;;;;4.73;4.37;;;7.30;96.50;;;;;;5055262;28;20581;-82
2021/05/07 01:43:51;;;;;;;4.27;3.87;;;7.20;93.70;;;;;;5056062;28;20452;-80
2021/05/07 01:46:26;;;;;;;3.73;3.43;;;7.20;93.60;;;;;;5056783;28;20455;-81
2021/05/07 01:49:01;;;;;;;3.50;3.20;;;7.20;93.20;;;;;;5058854;28;20463;-80
2021/05/07 01:51:36;;;;;;;4.60;4.20;;;7.10;93.70;;;;;;5058678;28;20468;-81
2021/05/07 01:54:20;;;;;;;4.53;4.13;;;7.10;94.40;;;;;;5058486;28;20481;-81
2021/05/07 01:56:55;;;;;;;4.13;3.83;;;7.10;94.40;;;;;;5055159;28;20982;-82
2021/05/07 01:59:27;;;;;;;4.10;3.77;;;;;;;;;;5059159;28;20573;-80
2021/05/07 02:01:59;;;;;;;9.30;4.30;;;;;;;;;;5056380;28;20553;-80
2021/05/07 02:04:34;;;;;;;4.63;4.23;;;7.10;93.90;;;;;;5056148;28;20483;-82
2021/05/07 02:07:14;;;;;;;5.30;4.80;;;7.10;93.40;;;;;;5059990;28;20866;-82
2021/05/07 02:09:49;;;;;;;4.97;4.57;;;7.10;93.70;;;;;;5063236;28;20473;-83
2021/05/07 02:12:24;;;;;;;4.53;4.13;;;7.10;94.50;;;;;;5062503;28;20471;-82
2021/05/07 02:14:56;;;;;;;5.27;4.87;;;7.00;95.10;;;;;;5061443;28;20460;-82
2021/05/07 02:17:33;;;;;;;4.93;4.53;;;7.00;95.10;;;;;;5059680;28;20453;-82
2021/05/07 02:20:13;;;;;;;5.03;4.53;;;7.00;96.30;;;;;;5059728;28;20483;-82
2021/05/07 02:22:46;;;;;;;4.93;4.53;;;7.00;96.70;;;;;;5037189;28;20447;-80
2021/05/07 02:25:20;;;;;;;6.03;5.43;;;7.00;97.70;;;;;;5058616;28;20457;-83
2021/05/07 02:27:57;;;;;;;5.20;4.80;;;7.00;96.70;;;;;;5060681;28;20475;-84
2021/05/07 02:30:33;;;;;;;5.40;4.97;;;7.00;97.40;;;;;;5055244;28;20473;-82
2021/05/07 02:33:08;;;;;;;5.97;5.47;;;7.00;96.80;;;;;;5053014;28;20968;-82
2021/05/07 02:35:42;;;;;;;5.50;5.00;;;7.00;95.90;;;;;;5057436;28;20453;-82
2021/05/07 02:38:18;;;;;;;8.00;5.37;;;7.00;95.90;;;;;;5059848;28;20506;-82
2021/05/07 02:40:58;;;;;;;6.20;5.57;;;7.00;97.00;;;;;;5056616;28;20541;-81
2021/05/07 02:43:40;;;;;;;6.37;5.77;;;7.00;97.30;;;;;;5058917;28;20457;-82
2021/05/07 02:46:15;;;;;;;6.60;6.00;;;7.00;96.90;;;;;;5057233;28;20466;-81
2021/05/07 02:48:47;;;;;;;5.77;5.33;;;7.10;98.50;;;;;;5052548;28;20771;-82
2021/05/07 02:51:22;;;;;;;5.93;5.43;;;7.00;98.00;;;;;;5057306;28;20457;-81
2021/05/07 02:53:58;;;;;;;6.53;6.03;;;7.00;98.30;;;;;;5059382;28;20446;-81
2021/05/07 02:56:33;;;;;;;6.07;5.57;;;6.90;98.70;;;;;;5061475;28;20481;-81
2021/05/07 02:59:15;;;;;;;5.90;5.27;;;6.90;99.10;;;;;;5056858;28;20452;-82
2021/05/07 03:01:55;;;;;;;6.00;5.47;;;6.90;98.70;;;;;;5060538;28;20586;-83
2021/05/07 03:04:30;;;;;;;5.47;5.00;;;6.90;97.20;;;;;;5053654;28;20472;-82
2021/05/07 03:07:05;;;;;;;6.57;5.97;;;6.90;98.60;;;;;;5065014;28;20474;-82
2021/05/07 03:09:42;;;;;;;6.33;5.67;;;6.90;99.10;;;;;;5060841;28;20441;-80
2021/05/07 03:12:17;;;;;;;6.87;6.27;;;6.80;98.30;;;;;;5063195;28;20506;-82
2021/05/07 03:14:57;;;;;;;6.50;5.77;;;6.90;99.00;;;;;;5059311;28;20520;-82
2021/05/07 03:17:37;;;;;;;7.03;6.37;;;6.80;98.70;;;;;;5059576;28;21068;-81
2021/05/07 03:20:14;;;;;;;6.23;5.73;;;6.80;98.30;;;;;;5061219;28;20490;-82
2021/05/07 03:22:49;;;;;;;6.57;6.00;;;6.80;99.90;;;;;;5061223;28;20452;-82
2021/05/07 03:25:24;;;;;;;7.37;6.70;;;6.80;96.80;;;;;;5060564;28;20567;-82
2021/05/07 03:27:59;;;;;;;7.00;6.30;;;6.80;98.40;;;;;;5062954;28;20490;-81
2021/05/07 03:30:39;;;;;;;7.30;6.60;;;6.80;98.30;;;;;;5064878;28;20470;-83
2021/05/07 03:33:14;;;;;;;6.63;6.00;;;6.80;97.70;;;;;;5063206;28;20459;-82
2021/05/07 03:35:50;;;;;;;9.00;5.63;;;6.80;97.30;;;;;;5062673;28;20526;-80
2021/05/07 03:38:24;;;;;;;7.93;7.13;;;6.80;97.20;;;;;;5055501;28;20453;-81
2021/05/07 03:41:00;;;;;;;7.50;6.80;;;6.70;98.90;;;;;;5049379;28;20456;-81
2021/05/07 03:43:35;;;;;;;7.90;7.10;;;6.70;99.60;;;;;;5049897;28;20451;-81
2021/05/07 03:46:10;;;;;;;8.00;7.20;;;6.70;99.90;;;;;;5049921;28;20521;-84
2021/05/07 03:48:49;;;;;;;8.50;7.60;;;6.60;99.90;;;;;;5064593;28;20441;-83
2021/05/07 03:51:29;;;;;;;8.27;7.47;;;6.60;99.90;;;;;;5057556;28;20460;-84
2021/05/07 03:54:09;;;;;;;8.30;7.50;;;6.60;99.90;;;;;;5055038;28;20506;-84
2021/05/07 03:56:50;;;;;;;8.20;7.40;;;6.60;99.90;;;;;;5054392;28;20446;-83
2021/05/07 03:59:30;;;;;;;9.00;8.10;;;6.60;99.90;;;;;;5048252;28;20473;-82
2021/05/07 04:02:04;;;;;;;7.90;7.10;;;6.60;99.90;;;;;;5058948;28;20460;-84
2021/05/07 04:04:45;;;;;;;9.07;8.13;;;6.70;99.90;;;;;;5060959;28;20456;-84
2021/05/07 04:07:27;;;;;;;8.57;7.63;;;6.70;99.90;;;;;;5059886;28;20782;-85
2021/05/07 04:10:05;;;;;;;7.70;6.97;;;6.60;99.90;;;;;;5061505;28;20461;-83
2021/05/07 04:15:39;;;;;;;8.47;7.60;;;6.60;99.90;;;;;;5059580;28;20453;-84
2021/05/07 04:18:19;;;;;;;8.33;7.30;;;6.60;99.90;;;;;;5062341;28;20458;-83
2021/05/07 04:20:58;;;;;;;9.10;8.20;;;6.70;99.90;;;;;;5060840;28;20453;-84
2021/05/07 04:23:39;;;;;;;8.83;7.97;;;6.70;99.90;;;;;;5059310;28;20532;-83
2021/05/07 04:26:20;;;;;;;8.30;7.50;;;6.80;99.90;;;;;;5063134;28;20491;-82
2021/05/07 04:28:58;;;;;;;8.03;7.23;;;6.70;99.90;;;;;;5062718;28;20484;-82
2021/05/07 04:31:38;;;;;;;9.03;7.97;;;6.70;99.90;;;;;;5061561;28;20530;-83
2021/05/07 04:34:18;;;;;;;8.57;7.77;;;6.80;99.90;;;;;;5055968;28;20739;-83
2021/05/07 04:36:53;;;;;;;7.57;6.80;;;6.90;99.90;;;;;;5057370;28;20461;-83
2021/05/07 04:39:34;;;;;;;9.80;7.60;;;6.80;99.90;;;;;;5055775;28;20495;-84
2021/05/07 04:45:06;;;;;;;8.13;7.30;;;6.70;99.90;;;;;;5055438;28;20964;-83
2021/05/07 04:47:46;;;;;;;8.43;7.63;;;6.70;99.90;;;;;;5040614;28;20461;-83
2021/05/07 04:50:18;;;;;;;8.73;7.93;;;6.80;99.90;;;;;;5024428;28;20469;-83
2021/05/07 04:52:53;;;;;;;9.70;8.70;;;6.70;99.90;;;;;;5064640;28;20459;-84
2021/05/07 04:55:33;;;;;;;8.47;7.57;;;6.80;99.90;;;;;;5065678;28;20528;-83
2021/05/07 04:58:13;;;;;;;9.40;8.47;;;6.70;99.90;;;;;;5062569;28;20463;-83
2021/05/07 05:01:20;;;;;;;9.07;8.17;;;6.70;99.90;;;;;;5059942;28;20466;-82
2021/05/07 05:06:46;;;;;;;10.13;8.37;;;6.70;99.90;;;;;;5067269;28;20441;-83
2021/05/07 05:09:26;;;;;;;9.90;8.90;;;6.70;99.90;;;;;;5065089;28;20468;-85
2021/05/07 05:12:07;;;;;;;10.87;8.93;;;6.70;99.90;;;;;;5061835;28;20526;-83
2021/05/07 05:14:58;;;;;;;10.40;9.20;;;6.80;99.90;;;;;;5044412;28;20460;-85
2021/05/07 05:17:44;;;;;;;9.90;8.30;;;6.80;99.90;;;;;;5060911;28;20465;-83
2021/05/07 05:20:20;;;;;;;9.67;8.70;;;6.70;99.90;;;;;;5061642;28;20453;-84
2021/05/07 05:22:55;;;;;;;10.90;9.03;;;6.70;99.90;;;;;;5059051;28;20882;-83
2021/05/07 05:25:31;;;;;;;9.37;8.47;;;6.80;99.90;;;;;;5056850;28;20488;-84
2021/05/07 05:28:05;;;;;;;10.90;9.57;;;7.10;99.90;;;;;;5057475;28;20444;-83
2021/05/07 05:30:40;;;;;;;10.10;9.10;;;7.20;99.90;;;;;;5054736;28;20483;-82
2021/05/07 05:33:14;;;;;;;10.00;9.10;;;7.30;99.90;;;;;;5045346;28;20460;-80
2021/05/07 05:35:50;;;;;;;8.43;7.63;;;7.30;97.50;;;;;;5055724;28;20485;-82
2021/05/07 05:38:26;;;;;;;8.90;7.80;;;7.20;99.90;;;;;;5058618;28;20475;-82
2021/05/07 05:41:06;;;;;;;10.10;8.50;;;7.20;99.90;;;;;;5063049;28;20474;-82
2021/05/07 05:43:41;;;;;;;10.40;8.60;;;7.20;99.90;;;;;;5058623;28;20438;-81
2021/05/07 05:46:20;;;;;;;9.50;8.60;;;7.10;98.80;;;;;;5055297;28;20456;-82
2021/05/07 05:48:56;;;;;;;8.17;7.20;;;7.20;99.90;;;;;;5063401;28;20448;-81
2021/05/07 05:51:36;;;;;;;9.13;8.23;;;7.60;97.40;;;;;;5060373;28;20563;-83
2021/05/07 05:54:12;;;;;;;9.37;8.47;;;7.70;98.30;;;;;;5064028;28;20446;-82
2021/05/07 05:56:47;;;;;;;8.37;7.57;;;7.70;94.50;;;;;;5062360;28;20532;-82
2021/05/07 05:59:21;;;;;;;8.23;7.43;;;7.70;93.30;;;;;;5061644;28;20525;-82
2021/05/07 06:01:56;;;;;;;8.10;7.40;;;7.70;94.10;;;;;;5063891;28;20512;-81
2021/05/07 06:04:29;;;;;;;8.50;7.60;;;7.90;94.50;;;;;;5062597;28;20470;-82
2021/05/07 06:07:04;;;;;;;9.23;7.60;;;8.10;92.40;;;;;;5062765;28;20446;-80
2021/05/07 06:09:39;;;;;;;8.90;7.53;;;7.60;92.30;;;;;;5059091;28;20519;-81
2021/05/07 06:12:20;;;;;;;9.80;7.43;;;7.60;92.40;;;;;;5063188;28;20507;-82
2021/05/07 06:14:55;;;;;;;9.20;7.27;;;7.50;95.00;;;;;;5063440;28;20472;-81
2021/05/07 06:17:34;;;;;;;9.33;8.47;;;7.30;94.40;;;;;;5060974;28;20470;-81
2021/05/07 06:20:11;;;;;;;11.57;7.67;;;7.10;96.70;;;;;;5067803;28;20514;-82
2021/05/07 06:22:51;;;;;;;8.90;8.00;;;7.10;95.10;;;;;;5064309;28;20456;-83
2021/05/07 06:25:26;;;;;;;8.27;7.47;;;7.10;96.50;;;;;;5068132;28;20475;-84
2021/05/07 06:28:01;;;;;;;8.27;7.47;;;7.40;93.80;;;;;;5061738;28;20603;-83
2021/05/07 06:30:36;;;;;;;7.30;6.70;;;7.40;95.10;;;;;;5062292;28;20461;-82
2021/05/07 06:33:08;;;;;;;8.40;7.60;;;7.50;93.20;;;;;;5065350;28;20479;-82
2021/05/07 06:35:44;;;;;;;7.73;7.03;;;7.90;91.50;;;;;;5062072;28;20468;-83
2021/05/07 06:38:19;;;;;;;7.87;7.07;;;7.80;90.00;;;;;;5062431;28;20475;-83
2021/05/07 06:40:58;;;;;;;8.03;7.33;;;8.00;88.20;;;;;;5061779;28;20444;-83
2021/05/07 06:43:38;;;;;;;7.70;6.90;;;7.90;88.50;;;;;;5060767;28;20453;-83
2021/05/07 06:46:18;;;;;;;9.23;7.50;;;7.80;90.50;;;;;;5065728;28;20465;-82
2021/05/07 06:48:53;;;;;;;7.40;6.70;;;7.90;85.10;;;;;;5063990;28;20487;-84
2021/05/07 06:51:29;;;;;;;11.90;6.90;;;7.80;86.00;;;;;;5065493;28;20560;-83
2021/05/07 06:54:05;;;;;;;7.87;7.07;;;7.60;84.50;;;;;;5061600;28;20462;-82
2021/05/07 06:56:51;;;;;;;8.07;7.37;;;7.60;85.20;;;;;;5062105;28;20465;-83
2021/05/07 06:59:26;;;;;;;7.87;7.17;;;7.70;86.00;;;;;;5057794;28;20455;-81
2021/05/07 07:02:02;;;;;;;9.73;8.40;;;7.80;85.90;;;;;;5062184;28;20484;-81
2021/05/07 07:04:37;;;;;;;8.40;7.60;;;7.80;85.90;;;;;;5047210;28;20900;-83
2021/05/07 07:07:19;;;;;;;9.37;7.53;;;8.10;84.30;;;;;;5060729;28;20442;-83
2021/05/07 07:09:59;;;;;;;8.03;7.30;;;8.10;84.60;;;;;;5061709;28;20446;-84
2021/05/07 07:12:34;;;;;;;8.10;7.30;;;8.00;84.00;;;;;;5062908;28;20500;-84
2021/05/07 07:15:12;;;;;;;9.33;8.40;;;7.80;83.10;;;;;;5044629;28;20456;-81
2021/05/07 07:17:52;;;;;;;9.27;8.30;;;7.80;83.00;;;;;;5044345;28;20441;-82
2021/05/07 07:20:30;;;;;;;8.80;8.00;;;7.90;83.60;;;;;;5061618;28;20941;-82
2021/05/07 07:23:06;;;;;;;9.17;8.37;;;8.10;83.50;;;;;;5046323;28;20454;-82
2021/05/07 07:25:47;;;;;;;7.53;6.83;;;8.20;83.30;;;;;;5060232;28;20476;-82
2021/05/07 07:28:22;;;;;;;8.87;7.97;;;8.20;82.40;;;;;;5063282;28;20457;-83
2021/05/07 07:30:56;;;;;;;8.80;8.00;;;8.20;82.30;;;;;;5061472;28;20468;-83
2021/05/07 07:33:31;;;;;;;8.20;7.40;;;8.50;79.40;;;;;;5062561;28;20433;-82
2021/05/07 07:36:06;;;;;;;9.73;8.13;;;8.50;79.50;;;;;;5058655;28;20450;-83
2021/05/07 07:38:50;;;;;;;12.53;8.33;;;8.80;78.30;;;;;;5064598;28;20540;-82
2021/05/07 07:41:24;;;;;;;8.03;7.33;;;8.60;77.80;;;;;;5063316;28;20533;-81
2021/05/07 07:43:59;;;;;;;9.30;8.50;;;8.40;77.80;;;;;;5066671;28;20453;-82
2021/05/07 07:46:34;;;;;;;8.67;7.77;;;8.50;78.00;;;;;;5061885;28;20449;-83
2021/05/07 07:49:12;;;;;;;7.00;6.40;;;8.60;75.80;;;;;;5058473;28;20465;-81
2021/05/07 07:51:57;;;;;;;6.37;5.77;;;8.60;76.90;;;;;;5062474;28;20480;-82
2021/05/07 07:54:31;;;;;;;6.80;6.20;;;8.90;76.10;;;;;;5061663;28;20480;-81
2021/05/07 07:57:05;;;;;;;6.90;6.30;;;9.50;76.90;;;;;;5063384;28;20461;-84
2021/05/07 07:59:50;;;;;;;6.70;6.17;;;9.50;73.90;;;;;;5059508;28;20448;-84
2021/05/07 08:02:26;;;;;;;8.10;7.30;;;9.40;74.10;;;;;;5057594;28;20468;-83
2021/05/07 08:05:02;;;;;;;7.37;6.67;;;9.70;74.60;;;;;;5059944;28;20446;-83
2021/05/07 08:07:36;;;;;;;7.00;6.40;;;9.90;71.30;;;;;;5066461;28;20448;-82
2021/05/07 08:10:19;;;;;;;7.63;6.87;;;10.20;69.70;;;;;;5059197;28;20508;-84
2021/05/07 08:12:54;;;;;;;6.97;6.40;;;10.80;69.50;;;;;;5063201;28;20470;-84
2021/05/07 08:15:29;;;;;;;6.50;6.00;;;9.60;69.40;;;;;;5057312;28;20476;-83
2021/05/07 08:18:04;;;;;;;7.50;6.80;;;9.20;70.50;;;;;;5058277;28;20456;-82
2021/05/07 08:20:39;;;;;;;6.70;6.03;;;9.20;70.40;;;;;;5056381;28;20508;-83
2021/05/07 08:23:14;;;;;;;7.17;6.57;;;9.20;69.40;;;;;;5060176;28;20569;-84
2021/05/07 08:25:51;;;;;;;6.60;6.00;;;9.10;69.00;;;;;;5061644;28;20469;-82
2021/05/07 08:28:26;;;;;;;8.00;7.20;;;9.20;68.10;;;;;;5065641;28;20456;-83
2021/05/07 08:31:01;;;;;;;6.57;5.90;;;10.10;66.40;;;;;;5065882;28;21144;-83
2021/05/07 08:33:37;;;;;;;7.60;6.80;;;10.20;67.10;;;;;;5066057;28;20465;-83
2021/05/07 08:36:17;;;;;;;7.60;6.90;;;9.50;66.00;;;;;;5064665;28;20464;-84
2021/05/07 08:38:53;;;;;;;5.77;5.20;;;9.30;64.40;;;;;;5061928;28;20433;-84
2021/05/07 08:41:34;;;;;;;6.07;5.57;;;9.40;64.00;;;;;;5062619;28;20441;-82
2021/05/07 08:44:10;;;;;;;5.33;4.93;;;9.10;61.70;;;;;;5065715;28;20474;-84
2021/05/07 08:46:51;;;;;;;5.80;5.30;;;8.90;61.90;;;;;;5067874;28;20442;-84
2021/05/07 08:49:27;;;;;;;7.40;6.17;;;9.10;61.70;;;;;;5064799;28;20575;-84
2021/05/07 08:52:07;;;;;;;5.60;5.20;;;9.40;62.00;;;;;;5066708;28;20485;-83
2021/05/07 08:54:55;;;;;;;6.20;5.00;;;9.40;61.00;;;;;;5067597;28;20430;-83
2021/05/07 08:57:36;;;;;;;6.90;6.30;;;9.50;60.90;;;;;;5067359;28;20454;-82
2021/05/07 09:00:22;;;;;;;6.67;6.07;;;9.60;60.90;;;;;;5069043;28;20485;-83
2021/05/07 09:03:11;;;;;;;7.10;6.10;;;9.80;61.60;;;;;;5065125;28;20540;-84
2021/05/07 09:05:55;;;;;;;5.97;5.47;;;10.20;59.40;;;;;;5059411;28;20450;-84
2021/05/07 09:08:37;;;;;;;7.27;6.40;;;10.40;58.70;;;;;;5066142;28;20467;-85
2021/05/07 09:11:09;;;;;;;6.30;5.80;;;10.90;57.70;;;;;;5065145;28;20525;-83
2021/05/07 09:13:47;;;;;;;6.30;5.70;;;11.10;57.10;;;;;;5063580;28;20435;-83
2021/05/07 09:16:22;;;;;;;6.87;6.10;;;10.30;56.70;;;;;;5050891;28;20442;-83
2021/05/07 09:18:57;;;;;;;5.97;5.47;;;9.70;58.40;;;;;;5066708;28;20453;-83
2021/05/07 09:21:34;;;;;;;6.70;6.17;;;9.90;58.60;;;;;;5066300;28;20442;-82
2021/05/07 09:24:19;;;;;;;6.47;5.97;;;10.10;56.60;;;;;;5060861;28;20440;-82
2021/05/07 09:26:55;;;;;;;6.43;5.87;;;10.40;56.00;;;;;;5063511;28;20467;-84
2021/05/07 09:29:53;;;;;;;5.93;5.43;;;10.60;56.30;;;;;;5063032;28;20492;-81
2021/05/07 09:32:40;;;;;;;6.67;5.67;;;9.90;55.70;;;;;;5061839;28;20474;-84
2021/05/07 09:35:23;;;;;;;6.30;5.70;;;10.00;55.50;;;;;;5058889;28;20489;-83
2021/05/07 09:38:04;;;;;;;5.90;5.30;;;10.60;53.40;;;;;;5065043;28;20442;-81
2021/05/07 09:40:42;;;;;;;6.47;5.87;;;10.70;53.50;;;;;;5060780;28;20442;-82
2021/05/07 09:43:20;;;;;;;6.03;5.43;;;10.10;51.90;;;;;;5061131;28;20443;-81
2021/05/07 09:45:58;;;;;;;6.20;5.67;;;10.30;51.20;;;;;;5061089;28;20451;-86
2021/05/07 09:48:33;;;;;;;5.73;5.20;;;10.50;51.50;;;;;;5067070;28;21378;-85
2021/05/07 09:51:12;;;;;;;6.27;5.67;;;10.60;51.20;;;;;;5068675;28;20498;-82
2021/05/07 09:53:47;;;;;;;6.00;5.50;;;11.10;50.90;;;;;;5064312;28;20447;-83
2021/05/07 09:56:24;;;;;;;6.17;5.57;;;10.30;50.10;;;;;;5062063;28;20445;-85
2021/05/07 09:59:04;;;;;;;7.10;6.40;;;10.20;50.50;;;;;;5059074;28;20488;-83
2021/05/07 10:01:45;;;;;;;6.47;5.90;;;10.10;51.80;;;;;;5061201;28;20536;-82
2021/05/07 10:04:21;;;;;;;5.83;5.33;;;10.10;50.80;;;;;;5044084;28;20506;-82
2021/05/07 10:07:10;;;;;;;8.80;5.63;;;10.50;48.80;;;;;;5055195;28;20492;-85
2021/05/07 10:09:40;;;;;;;6.23;5.30;;;10.40;50.10;;;;;;5063342;28;20446;-86
2021/05/07 10:12:17;;;;;;;6.03;5.53;;;10.30;49.90;;;;;;5058555;28;20444;-82
2021/05/07 10:14:53;;;;;;;6.97;6.27;;;10.10;49.10;;;;;;5053599;28;20964;-86
2021/05/07 10:17:34;;;;;;;7.33;6.70;;;9.90;49.00;;;;;;5061076;28;20449;-84
2021/05/07 10:20:16;;;;;;;7.00;6.10;;;10.00;48.70;;;;;;5058882;28;20482;-85
2021/05/07 10:22:51;;;;;;;6.13;5.60;;;10.30;49.60;;;;;;5057979;28;20500;-82
2021/05/07 10:25:28;;;;;;;5.80;5.20;;;11.10;46.40;;;;;;5061982;28;20468;-83
2021/05/07 10:28:02;;;;;;;6.50;6.00;;;11.10;45.80;;;;;;5064838;28;20443;-85
2021/05/07 10:30:38;;;;;;;7.53;6.82;;;11.40;47.00;;;;;;5058706;28;20916;-78
2021/05/07 10:33:22;;;;;;;7.43;6.72;;;11.00;46.60;;;;;;5056930;28;20436;-81
2021/05/07 10:35:59;;;;;;;7.37;6.67;;;10.90;46.50;;;;;;5046401;28;20195;-77
2021/05/07 10:38:35;;;;;;;6.80;6.20;;;10.90;46.50;;;;;;5053552;28;20814;-77
2021/05/07 10:41:14;;;;;;;7.10;6.50;;;10.80;46.80;;;;;;5047473;28;20447;-77
2021/05/07 10:43:49;;;;;;;11.90;7.00;;;11.10;47.50;;;;;;5053282;28;20549;-77
2021/05/07 10:46:31;;;;;;;7.23;6.63;;;11.10;47.80;;;;;;5053615;28;20438;-82
2021/05/07 10:49:07;;;;;;;8.10;7.00;;;11.40;48.20;;;;;;5050246;28;20932;-78
2021/05/07 10:51:41;;;;;;;6.60;5.90;;;11.20;47.10;;;;;;5053883;28;20461;-78
2021/05/07 10:54:18;;;;;;;9.20;8.40;;;10.90;46.90;;;;;;5057939;28;20462;-84
2021/05/07 10:56:58;;;;;;;8.52;7.82;;;11.30;47.40;;;;;;5058932;28;20956;-87
2021/05/07 11:08:16;;;;;;;7.83;7.13;;;12.20;45.20;;;;;;5041050;28;20441;-86
2021/05/07 11:13:48;;;;;;;7.73;6.97;;;11.80;45.60;;;;;;5059267;28;20457;-87
2021/05/07 11:16:23;;;;;;;7.90;7.23;;;11.40;44.70;;;;;;5055268;28;20482;-87
2021/05/07 11:19:03;;;;;;;7.90;7.20;;;11.30;44.80;;;;;;5038898;28;20450;-86
2021/05/07 11:24:39;;;;;;;7.83;7.13;;;11.40;44.20;;;;;;5052793;28;20457;-82
2021/05/07 11:27:22;;;;;;;8.40;7.50;;;10.60;43.60;;;;;;5058277;28;20445;-82
2021/05/07 11:30:13;;;;;;;9.67;8.50;;;10.90;44.60;;;;;;5060302;28;20457;-82
2021/05/07 11:32:53;;;;;;;8.17;7.43;;;10.80;44.90;;;;;;5060008;28;20477;-81
2021/05/07 11:35:28;;;;;;;9.20;8.30;;;11.00;44.40;;;;;;5060579;28;20517;-81
2021/05/07 11:38:04;;;;;;;8.73;7.93;;;11.10;44.90;;;;;;5060071;28;20477;-86
2021/05/07 11:40:47;;;;;;;10.13;7.90;;;11.20;44.50;;;;;;5060237;28;20453;-87
2021/05/07 11:43:22;;;;;;;8.30;7.60;;;11.00;44.40;;;;;;5061666;28;20449;-83
2021/05/07 11:46:08;;;;;;;8.00;7.20;;;11.60;44.00;;;;;;5062852;28;20457;-83
2021/05/07 11:48:47;;;;;;;7.73;7.10;;;12.10;44.10;;;;;;5065136;28;20525;-81
2021/05/07 11:51:22;;;;;;;7.83;7.13;;;12.10;43.40;;;;;;5060707;28;20466;-81
2021/05/07 11:54:02;;;;;;;8.00;7.30;;;11.90;43.30;;;;;;5056478;28;20536;-83
2021/05/07 11:56:38;;;;;;;7.23;6.63;;;11.40;42.70;;;;;;5044998;28;20461;-85
2021/05/07 11:59:23;;;;;;;8.00;7.30;;;10.90;43.00;;;;;;5057350;28;20464;-81
2021/05/07 12:01:58;;;;;;;8.53;7.73;;;11.10;43.80;;;;;;5060287;28;20963;-80
2021/05/07 12:04:33;;;;;;;9.63;8.73;;;11.00;43.60;;;;;;5063701;28;20450;-83
2021/05/07 12:07:21;;;;;;;9.43;8.53;;;10.60;43.50;;;;;;5068556;28;20262;-82
2021/05/07 12:09:57;;;;;;;8.97;8.07;;;10.70;44.20;;;;;;5066050;28;20520;-81
2021/05/07 12:12:43;;;;;;;8.87;8.00;;;11.00;44.30;;;;;;5057966;28;20539;-82
2021/05/07 12:15:26;;;;;;;9.03;8.23;;;11.10;44.40;;;;;;5063626;28;20547;-80
2021/05/07 12:18:03;;;;;;;9.50;7.80;;;11.50;44.40;;;;;;5065047;28;20769;-80
2021/05/07 12:20:51;;;;;;;8.10;7.40;;;11.70;44.10;;;;;;5061963;28;20460;-80
2021/05/07 12:23:27;;;;;;;8.63;7.80;;;12.10;43.70;;;;;;5066248;28;20458;-81
2021/05/07 12:26:01;;;;;;;6.70;6.10;;;12.00;43.60;;;;;;5068760;28;20473;-82
2021/05/07 12:28:37;;;;;;;5.60;5.13;;;12.70;42.30;;;;;;5065726;28;20539;-83
2021/05/07 12:31:13;;;;;;;5.10;4.70;;;12.50;41.60;;;;;;5058977;28;20461;-79
2021/05/07 12:33:47;;;;;;;5.03;4.63;;;12.20;40.60;;;;;;5057441;28;20453;-80
2021/05/07 12:36:24;;;;;;;4.20;3.80;;;12.10;39.90;;;;;;5060772;28;21229;-79
2021/05/07 12:39:08;;;;;;;4.33;4.03;;;11.80;40.70;;;;;;5057660;28;20453;-80
2021/05/07 12:41:45;;;;;;;4.73;4.17;;;11.70;41.90;;;;;;5039707;28;20982;-79
2021/05/07 12:44:20;;;;;;;4.87;4.33;;;11.40;41.90;;;;;;5055774;28;20578;-81
2021/05/07 12:46:55;;;;;;;4.87;3.70;;;11.40;41.10;;;;;;5046659;28;20441;-81
2021/05/07 12:49:30;;;;;;;4.07;3.77;;;11.90;41.90;;;;;;5060901;28;20438;-81
2021/05/07 12:52:10;;;;;;;4.30;3.90;;;12.30;40.40;;;;;;5056243;28;20479;-79
2021/05/07 12:54:46;;;;;;;4.47;4.00;;;12.80;40.00;;;;;;5056926;28;20450;-79
2021/05/07 12:57:20;;;;;;;3.97;3.67;;;;;;;;;;5053152;28;20506;-81
2021/05/07 12:59:52;;;;;;;3.70;3.40;;;;;;;;;;5049639;28;20480;-78
2021/05/07 13:02:24;;;;;;;3.93;3.50;;;;;;;;;;5054075;28;20554;-77
2021/05/07 13:04:55;;;;;;;3.50;3.20;;;;;;;;;;5050580;28;20924;-79
2021/05/07 13:07:30;;;;;;;11.23;4.73;;;11.40;38.40;;;;;;5050570;28;20815;-81
2021/05/07 13:10:06;;;;;;;7.30;4.90;;;9.40;46.70;;;;;;5050581;28;20510;-76
2021/05/07 13:12:41;;;;;;;6.70;5.53;;;8.90;52.10;;;;;;5050388;28;20469;-77
2021/05/07 13:15:18;;;;;;;7.90;6.37;;;8.00;56.40;;;;;;5047664;28;20452;-78
2021/05/07 13:17:51;;;;;;;6.73;6.13;;;7.20;74.80;;;;;;5047406;28;20453;-76
2021/05/07 13:20:27;;;;;;;7.30;6.60;;;7.30;75.50;;;;;;5048034;28;20522;-76
2021/05/07 13:23:01;;;;;;;6.30;5.70;;;7.60;74.00;;;;;;5051245;28;20442;-77
2021/05/07 13:25:36;;;;;;;6.40;5.40;;;7.60;70.30;;;;;;5052939;28;20469;-77
2021/05/07 13:28:11;;;;;;;5.63;4.90;;;7.90;68.60;;;;;;5054976;28;20449;-76
2021/05/07 13:30:46;;;;;;;7.90;5.00;;;7.80;68.20;;;;;;5049249;28;20467;-76
2021/05/07 13:33:23;;;;;;;5.90;4.70;;;7.80;66.50;;;;;;5048259;28;20475;-77
2021/05/07 13:35:58;;;;;;;5.88;5.28;;;8.30;66.80;;;;;;5053890;28;20471;-80
2021/05/07 13:38:33;;;;;;;7.03;4.13;;;8.80;66.40;;;;;;5062757;28;20202;-87
2021/05/07 13:41:05;;;;;;;4.80;4.40;;;8.90;64.90;;;;;;5060935;28;20449;-80
2021/05/07 13:43:44;;;;;;;4.60;4.20;;;9.40;64.20;;;;;;5064069;28;20438;-79
2021/05/07 13:46:19;;;;;;;5.17;4.77;;;9.20;63.90;;;;;;5063708;28;20449;-82
2021/05/07 13:48:54;;;;;;;4.57;4.17;;;8.80;64.50;;;;;;5064892;28;21258;-79
2021/05/07 13:51:28;;;;;;;4.50;4.10;;;9.20;65.50;;;;;;5063797;28;20469;-78
2021/05/07 13:54:03;;;;;;;4.43;4.03;;;9.50;64.10;;;;;;5053215;28;20476;-82
2021/05/07 13:56:38;;;;;;;4.93;4.53;;;9.50;63.20;;;;;;5057849;28;20931;-79
2021/05/07 13:59:13;;;;;;;5.03;4.53;;;9.30;62.40;;;;;;5051148;28;20457;-79
2021/05/07 14:01:49;;;;;;;5.87;4.90;;;9.30;62.80;;;;;;5050086;28;20788;-79
2021/05/07 14:04:24;;;;;;;4.88;4.38;;;9.60;61.90;;;;;;5049672;28;20502;-79
2021/05/07 14:06:59;;;;;;;4.40;4.03;;;9.40;61.60;;;;;;5053961;28;20677;-78
2021/05/07 14:09:33;;;;;;;4.60;4.20;;;9.50;61.90;;;;;;5048524;28;20964;-78
2021/05/07 14:12:09;;;;;;;4.47;4.07;;;9.60;60.80;;;;;;5042058;28;20501;-78
2021/05/07 14:14:46;;;;;;;3.97;3.67;;;9.20;61.20;;;;;;5054184;28;21062;-82